Time;durP1;ratioP1;P1;durP2;ratioP2;P2;SDS_P1;SDS_P2;PMS_P1;PMS_P2;Temp;Humidity;BMP_temperature;BMP_pressure;BME280_temperature;BME280_humidity;BME280_pressure;Samples;Min_cycle;Max_cycle;Signal;HPM_P1;HPM_P2
2022/01/07 00:02:20;;;;;;;15.47;3.43;;;;;;;-145.69;100.00;73798.91;5053276;28;20678;-74
2022/01/07 00:04:47;;;;;;;9.83;3.80;;;;;;;-145.69;100.00;73784.97;5053227;28;20202;-75
2022/01/07 00:07:14;;;;;;;8.43;3.10;;;;;;;-145.69;100.00;73798.91;5052707;28;20200;-77
2022/01/07 00:09:41;;;;;;;7.40;2.73;;;;;;;-145.69;100.00;73814.84;5053244;28;20204;-76
2022/01/07 00:12:08;;;;;;;13.27;3.17;;;;;;;-145.69;100.00;73810.84;5052921;28;20585;-76
2022/01/07 00:14:35;;;;;;;9.17;2.80;;;;;;;-145.69;100.00;73828.78;5053122;28;20203;-76
2022/01/07 00:17:01;;;;;;;11.43;3.03;;;;;;;-145.69;100.00;73844.69;5053110;28;20199;-76
2022/01/07 00:19:28;;;;;;;5.63;2.40;;;;;;;-145.69;100.00;73858.63;5053220;28;20199;-76
2022/01/07 00:21:54;;;;;;;5.13;2.43;;;;;;;-145.69;100.00;73868.59;5052940;28;20662;-76
2022/01/07 00:24:22;;;;;;;9.00;2.80;;;;;;;-145.69;100.00;73880.53;5052871;28;20199;-76
2022/01/07 00:26:49;;;;;;;7.83;2.60;;;;;;;-145.69;100.00;73902.44;5053035;28;20207;-76
2022/01/07 00:29:15;;;;;;;5.90;2.33;;;;;;;-145.69;100.00;73898.47;5053078;28;20269;-76
2022/01/07 00:31:42;;;;;;;7.50;2.57;;;;;;;-145.69;100.00;73894.47;5052906;28;20231;-76
2022/01/07 00:34:08;;;;;;;6.03;2.53;;;;;;;-145.69;100.00;73904.44;5038009;28;20210;-76
2022/01/07 00:36:35;;;;;;;7.30;2.60;;;;;;;-145.69;100.00;73898.47;5044916;28;20199;-76
2022/01/07 00:39:01;;;;;;;11.47;2.70;;;;;;;-145.69;100.00;73902.44;5052846;28;20203;-76
2022/01/07 00:41:29;;;;;;;6.70;2.47;;;;;;;-145.69;100.00;73906.44;5052499;28;20206;-76
2022/01/07 00:43:56;;;;;;;8.90;2.60;;;;;;;-145.69;100.00;73886.50;5052606;28;20204;-76
2022/01/07 00:46:22;;;;;;;10.03;3.17;;;;;;;-145.69;100.00;73846.69;5052790;28;20211;-76
2022/01/07 00:48:49;;;;;;;15.10;2.80;;;;;;;-145.69;100.00;73840.72;5052799;28;20200;-76
2022/01/07 00:51:15;;;;;;;7.87;2.80;;;;;;;-145.69;100.00;73834.75;5052483;28;20318;-76
2022/01/07 00:53:42;;;;;;;6.30;2.80;;;;;;;-145.69;100.00;73810.84;5052585;28;20233;-76
2022/01/07 00:56:08;;;;;;;15.10;2.50;;;;;;;-145.69;100.00;73784.97;5052818;28;20239;-76
2022/01/07 00:58:36;;;;;;;4.57;2.43;;;;;;;-145.69;100.00;73771.03;5053766;28;20658;-76
2022/01/07 01:01:03;;;;;;;7.10;2.60;;;;;;;-145.69;100.00;73743.16;5056826;28;20211;-76
2022/01/07 01:03:30;;;;;;;7.23;2.40;;;;;;;-145.69;100.00;73731.22;5056760;28;20196;-76
2022/01/07 01:05:58;;;;;;;9.57;2.80;;;;;;;-145.69;100.00;73725.25;5056417;28;20598;-76
2022/01/07 01:08:25;;;;;;;15.70;3.20;;;;;;;-145.69;100.00;73725.25;5056466;28;20742;-75
2022/01/07 01:10:51;;;;;;;10.73;2.67;;;;;;;-145.69;100.00;73723.25;5056648;28;20230;-76
2022/01/07 01:13:18;;;;;;;7.80;2.73;;;;;;;-145.69;100.00;73741.16;5056523;28;20690;-75
2022/01/07 01:15:46;;;;;;;11.37;3.37;;;;;;;-145.69;100.00;73723.25;5056462;28;20264;-75
2022/01/07 01:18:13;;;;;;;12.45;4.00;;;;;;;-145.69;100.00;73719.25;5055823;28;20455;-75
2022/01/07 01:20:39;;;;;;;8.47;2.50;;;;;;;-145.69;100.00;73719.25;5056289;28;20666;-76
2022/01/07 01:23:06;;;;;;;7.37;2.73;;;;;;;-145.69;100.00;73729.22;5055925;28;20191;-75
2022/01/07 01:25:33;;;;;;;5.80;2.60;;;;;;;-145.69;100.00;73739.19;5056170;28;20817;-75
2022/01/07 01:27:59;;;;;;;14.57;2.40;;;;;;;-145.69;100.00;73749.13;5056270;28;20210;-75
2022/01/07 01:30:28;;;;;;;12.40;3.07;;;;;;;-145.69;100.00;73743.16;5056318;28;20286;-75
2022/01/07 01:32:56;;;;;;;8.30;2.60;;;;;;;-145.69;100.00;73731.22;5055906;28;20713;-75
2022/01/07 01:35:23;;;;;;;9.43;3.00;;;;;;;-145.69;100.00;73721.25;5055761;28;20253;-75
2022/01/07 01:37:50;;;;;;;9.63;2.37;;;;;;;-145.69;100.00;73719.25;5055953;28;20662;-75
2022/01/07 01:40:17;;;;;;;11.77;2.67;;;;;;;-145.69;100.00;73711.31;5056179;28;20195;-75
2022/01/07 01:42:45;;;;;;;10.07;2.87;;;;;;;-145.69;100.00;73723.25;5055977;28;20216;-75
2022/01/07 01:45:15;;;;;;;3.47;2.20;;;;;;;-145.69;100.00;73733.19;5055969;28;20208;-75
2022/01/07 01:47:42;;;;;;;9.33;2.47;;;;;;;-145.69;100.00;73747.13;5055927;28;20196;-75
2022/01/07 01:50:11;;;;;;;8.87;3.07;;;;;;;-145.69;100.00;73779.00;5055807;28;20199;-75
2022/01/07 01:52:38;;;;;;;6.80;2.20;;;;;;;-145.69;100.00;73802.88;5054687;28;20706;-75
2022/01/07 01:55:06;;;;;;;6.73;2.47;;;;;;;-145.69;100.00;73822.81;5054448;28;20681;-75
2022/01/07 01:57:32;;;;;;;13.70;2.80;;;;;;;-145.69;100.00;73830.75;5054354;28;20206;-75
2022/01/07 02:00:00;;;;;;;11.57;3.17;;;;;;;-145.69;100.00;73834.75;5054503;28;20206;-75
2022/01/07 02:02:26;;;;;;;7.20;2.67;;;;;;;-145.69;100.00;73852.66;5054292;28;20202;-76
2022/01/07 02:04:53;;;;;;;6.57;2.40;;;;;;;-145.69;100.00;73858.63;5054280;28;20200;-76
2022/01/07 02:07:20;;;;;;;5.33;2.47;;;;;;;-145.69;100.00;73854.66;5053818;28;20524;-75
2022/01/07 02:09:47;;;;;;;6.73;3.17;;;;;;;-145.69;100.00;73838.72;5053691;28;20203;-76
2022/01/07 02:12:13;;;;;;;8.77;3.37;;;;;;;-145.69;100.00;73816.81;5054064;28;20223;-75
2022/01/07 02:14:51;;;;;;;8.63;3.23;;;;;;;-145.69;100.00;73814.84;5054242;28;20203;-75
2022/01/07 02:17:17;;;;;;;10.27;3.80;;;;;;;-145.69;100.00;73798.91;5054282;28;20235;-75
2022/01/07 02:19:45;;;;;;;6.53;3.50;;;;;;;-145.69;100.00;73788.94;5054271;28;20222;-75
2022/01/07 02:22:14;;;;;;;12.23;4.10;;;;;;;-145.69;100.00;73773.03;5054120;28;20547;-75
2022/01/07 02:24:41;;;;;;;15.23;4.23;;;;;;;-145.69;100.00;73743.16;5053493;28;20298;-75
2022/01/07 02:27:07;;;;;;;11.43;4.13;;;;;;;-145.69;100.00;73727.22;5036031;28;20698;-75
2022/01/07 02:29:34;;;;;;;17.53;4.93;;;;;;;-145.69;100.00;73727.22;5033963;28;20297;-75
2022/01/07 02:32:01;;;;;;;12.30;4.83;;;;;;;-145.69;100.00;73727.22;5034075;28;20228;-75
2022/01/07 02:34:27;;;;;;;14.20;4.40;;;;;;;-145.69;100.00;73715.28;5034077;28;20214;-75
2022/01/07 02:36:55;;;;;;;14.43;4.43;;;;;;;-145.69;100.00;73705.34;5047750;28;20196;-76
2022/01/07 02:39:22;;;;;;;9.83;4.37;;;;;;;-145.69;100.00;73691.38;5053861;28;20203;-75
2022/01/07 02:41:48;;;;;;;12.00;4.60;;;;;;;-145.69;100.00;73693.38;5053801;28;20253;-75
2022/01/07 02:44:15;;;;;;;10.27;4.40;;;;;;;-145.69;100.00;73691.38;5053674;28;20658;-75
2022/01/07 02:46:42;;;;;;;10.87;4.37;;;;;;;-145.69;100.00;73711.31;5053730;28;20203;-75
2022/01/07 02:49:10;;;;;;;11.33;4.17;;;;;;;-145.69;100.00;73715.28;5043281;28;20638;-75
2022/01/07 02:51:37;;;;;;;10.20;4.80;;;;;;;-145.69;100.00;73715.28;4996845;28;1053246;-75
2022/01/07 02:54:06;;;;;;;11.57;4.77;;;;;;;-145.69;100.00;73703.34;5034850;28;20216;-76
2022/01/07 02:56:33;;;;;;;10.97;4.90;;;;;;;-145.69;100.00;73693.38;5034515;28;20200;-76
2022/01/07 02:58:59;;;;;;;15.73;4.90;;;;;;;-145.69;100.00;73673.47;5034495;28;20261;-75
2022/01/07 03:01:25;;;;;;;13.63;5.57;;;;;;;-145.69;100.00;73671.47;5034482;28;20682;-75
2022/01/07 03:03:52;;;;;;;16.47;5.50;;;;;;;-145.69;100.00;73667.50;5034618;28;20203;-75
2022/01/07 03:06:20;;;;;;;16.73;5.80;;;;;;;-145.69;100.00;73671.47;5045725;28;20203;-75
2022/01/07 03:08:48;;;;;;;13.77;5.50;;;;;;;-145.69;100.00;73667.50;5054207;28;20207;-75
2022/01/07 03:11:16;;;;;;;14.17;5.80;;;;;;;-145.69;100.00;73671.47;5053914;28;20211;-75
2022/01/07 03:13:42;;;;;;;13.13;4.93;;;;;;;-145.69;100.00;73679.44;5054183;28;20235;-75
2022/01/07 03:16:09;;;;;;;14.53;5.80;;;;;;;-145.69;100.00;73677.47;5054093;28;20567;-75
2022/01/07 03:18:35;;;;;;;16.13;5.63;;;;;;;-145.69;100.00;73691.38;5054105;28;20204;-75
2022/01/07 03:21:03;;;;;;;15.57;6.17;;;;;;;-145.69;100.00;73699.34;5053237;28;20206;-75
2022/01/07 03:23:31;;;;;;;13.77;6.03;;;;;;;-145.69;100.00;73699.34;5054033;28;20203;-75
2022/01/07 03:25:58;;;;;;;12.80;6.07;;;;;;;-145.69;100.00;73701.34;5053772;28;20675;-76
2022/01/07 03:28:26;;;;;;;16.93;5.90;;;;;;;-145.69;100.00;73717.28;5054095;28;20202;-76
2022/01/07 03:30:52;;;;;;;13.93;5.47;;;;;;;-145.69;100.00;73723.25;5053862;28;20685;-76
2022/01/07 03:33:19;;;;;;;14.27;5.10;;;;;;;-145.69;100.00;73723.25;5053660;28;20235;-76
2022/01/07 03:35:46;;;;;;;14.47;5.67;;;;;;;-145.69;100.00;73723.25;5053553;28;20199;-76
2022/01/07 03:38:12;;;;;;;21.13;6.80;;;;;;;-145.69;100.00;73721.25;5053501;28;20195;-76
2022/01/07 03:40:39;;;;;;;13.50;5.70;;;;;;;-145.69;100.00;73739.19;5053690;28;20199;-76
2022/01/07 03:43:06;;;;;;;13.70;5.80;;;;;;;-145.69;100.00;73739.19;5053770;28;20207;-76
2022/01/07 03:45:34;;;;;;;17.47;6.53;;;;;;;-145.69;100.00;73739.19;5053617;28;20210;-76
2022/01/07 03:48:01;;;;;;;20.87;6.43;;;;;;;-145.69;100.00;73739.19;5053652;28;20247;-76
2022/01/07 03:50:29;;;;;;;17.57;6.60;;;;;;;-145.69;100.00;73735.19;5053587;28;20203;-75
2022/01/07 03:52:57;;;;;;;17.67;6.70;;;;;;;-145.69;100.00;73729.22;5053171;28;20239;-76
2022/01/07 03:55:27;;;;;;;25.67;7.57;;;;;;;-145.69;100.00;73715.28;5053699;28;20199;-76
2022/01/07 03:57:54;;;;;;;25.17;7.70;;;;;;;-145.69;100.00;73705.34;5053551;28;20207;-76
2022/01/07 04:00:22;;;;;;;21.37;7.40;;;;;;;-145.69;100.00;73721.25;5053491;28;20204;-76
2022/01/07 04:02:50;;;;;;;18.13;6.90;;;;;;;-145.69;100.00;73715.28;5053289;28;20199;-75
2022/01/07 04:05:20;;;;;;;14.93;6.37;;;;;;;-145.69;100.00;73719.25;5053056;28;20199;-75
2022/01/07 04:07:47;;;;;;;21.67;6.83;;;;;;;-145.69;100.00;73735.19;5053616;28;20214;-76
2022/01/07 04:10:13;;;;;;;16.13;5.93;;;;;;;-145.69;100.00;73743.16;5053387;28;20257;-75
2022/01/07 04:12:40;;;;;;;20.07;6.83;;;;;;;-145.69;100.00;73763.06;5052805;28;20234;-76
2022/01/07 04:15:08;;;;;;;18.00;6.83;;;;;;;-145.69;100.00;73747.13;5053142;28;20601;-76
2022/01/07 04:17:36;;;;;;;20.00;7.53;;;;;;;-145.69;100.00;73739.19;5053066;28;20650;-76
2022/01/07 04:20:05;;;;;;;23.33;7.87;;;;;;;-145.69;100.00;73721.25;5052917;28;20291;-76
2022/01/07 04:22:33;;;;;;;21.77;8.40;;;;;;;-145.69;100.00;73707.31;5052886;28;20439;-76
2022/01/07 04:24:59;;;;;;;21.13;8.30;;;;;;;-145.69;100.00;73689.41;5052832;28;20199;-75
2022/01/07 04:27:26;;;;;;;25.30;8.40;;;;;;;-145.69;100.00;73683.44;5040838;28;20212;-76
2022/01/07 04:29:52;;;;;;;20.77;8.00;;;;;;;-145.69;100.00;73685.41;5032943;28;20651;-76
2022/01/07 04:32:19;;;;;;;23.27;7.87;;;;;;;-145.69;100.00;73695.38;5032631;28;20219;-76
2022/01/07 04:34:46;;;;;;;28.73;9.93;;;;;;;-145.69;100.00;73683.44;5033155;28;20437;-76
2022/01/07 04:37:13;;;;;;;21.73;8.07;;;;;;;-145.69;100.00;73661.53;5052739;28;20697;-76
2022/01/07 04:39:40;;;;;;;21.27;8.20;;;;;;;-145.69;100.00;73671.47;5052931;28;20199;-76
2022/01/07 04:42:07;;;;;;;20.70;7.90;;;;;;;-145.69;100.00;73675.47;5052854;28;20210;-76
2022/01/07 04:44:35;;;;;;;24.37;8.77;;;;;;;-145.69;100.00;73673.47;5052591;28;20362;-76
2022/01/07 04:47:02;;;;;;;19.53;7.77;;;;;;;-145.69;100.00;73667.50;5052621;28;20196;-76
2022/01/07 04:49:28;;;;;;;27.40;8.30;;;;;;;-145.69;100.00;73647.59;5052841;28;20203;-76
2022/01/07 04:51:54;;;;;;;22.37;8.33;;;;;;;-145.69;100.00;73641.63;5052599;28;20235;-76
2022/01/07 04:54:22;;;;;;;22.30;8.93;;;;;;;-145.69;100.00;73643.59;5052758;28;20199;-75
2022/01/07 04:56:49;;;;;;;21.27;7.63;;;;;;;-145.69;100.00;73631.66;5052723;28;20253;-76
2022/01/07 04:59:15;;;;;;;25.10;7.77;;;;;;;-145.69;100.00;73649.59;5052633;28;20206;-76
2022/01/07 05:01:42;;;;;;;21.73;8.10;;;;;;;-145.69;100.00;73641.63;5052422;28;20199;-76
2022/01/07 05:04:08;;;;;;;18.67;8.40;;;;;;;-145.69;100.00;73647.59;5052511;28;20670;-76
2022/01/07 05:06:45;;;;;;;20.03;8.70;;;;;;;-145.69;100.00;73649.59;5052440;28;20585;-76
2022/01/07 05:09:12;;;;;;;23.10;8.77;;;;;;;-145.69;100.00;73641.63;5052507;28;20673;-76
2022/01/07 05:11:40;;;;;;;21.83;8.90;;;;;;;-145.69;100.00;73645.59;5052592;28;20203;-76
2022/01/07 05:14:06;;;;;;;26.10;8.57;;;;;;;-145.69;100.00;73659.53;5052306;28;20231;-76
2022/01/07 05:16:33;;;;;;;20.30;8.33;;;;;;;-145.69;100.00;73635.66;5052427;28;20200;-76
2022/01/07 05:18:59;;;;;;;18.63;8.60;;;;;;;-145.69;100.00;73639.63;5052637;28;20200;-76
2022/01/07 05:21:26;;;;;;;20.13;8.73;;;;;;;-145.69;100.00;73643.59;5052524;28;20200;-76
2022/01/07 05:23:52;;;;;;;21.30;8.57;;;;;;;-145.69;100.00;73661.53;5052463;28;20199;-75
2022/01/07 05:26:18;;;;;;;20.87;8.43;;;;;;;-145.69;100.00;73635.66;5052407;28;20215;-76
2022/01/07 05:28:46;;;;;;;25.23;8.93;;;;;;;-145.69;100.00;73637.63;5051898;28;20195;-77
2022/01/07 05:31:13;;;;;;;24.60;8.83;;;;;;;-145.69;100.00;73635.66;5052479;28;20250;-76
2022/01/07 05:33:39;;;;;;;23.87;8.60;;;;;;;-145.69;100.00;73633.66;5052345;28;20238;-76
2022/01/07 05:36:06;;;;;;;23.37;8.37;;;;;;;-145.69;100.00;73637.63;5052129;28;20196;-76
2022/01/07 05:38:32;;;;;;;19.60;7.87;;;;;;;-145.69;100.00;73651.56;5052349;28;20261;-76
2022/01/07 05:40:59;;;;;;;21.27;7.37;;;;;;;-145.69;100.00;73663.53;5052191;28;20199;-76
2022/01/07 05:43:26;;;;;;;26.07;8.73;;;;;;;-145.69;100.00;73649.59;5051905;28;20200;-76
2022/01/07 05:45:54;;;;;;;22.77;8.63;;;;;;;-145.69;100.00;73635.66;5055478;28;20206;-76
2022/01/07 05:48:21;;;;;;;24.43;9.50;;;;;;;-145.69;100.00;73619.72;5055845;28;20646;-76
2022/01/07 05:50:47;;;;;;;23.97;9.10;;;;;;;-145.69;100.00;73595.81;5055801;28;20673;-76
2022/01/07 05:53:13;;;;;;;21.07;8.47;;;;;;;-145.69;100.00;73575.91;5055590;28;20247;-76
2022/01/07 05:55:40;;;;;;;29.07;10.13;;;;;;;-145.69;100.00;73552.03;5055828;28;20226;-76
2022/01/07 05:58:07;;;;;;;28.97;9.70;;;;;;;-145.69;100.00;73548.03;5055613;28;20200;-76
2022/01/07 06:00:33;;;;;;;28.43;9.30;;;;;;;-145.69;100.00;73554.00;5055838;28;20601;-76
2022/01/07 06:03:01;;;;;;;27.17;9.63;;;;;;;-145.69;100.00;73520.16;5055715;28;20199;-76
2022/01/07 06:05:27;;;;;;;23.53;8.80;;;;;;;-145.69;100.00;73526.16;5055371;28;20196;-75
2022/01/07 06:07:54;;;;;;;24.70;8.10;;;;;;;-145.69;100.00;73504.25;5055524;28;20204;-76
2022/01/07 06:10:20;;;;;;;28.80;9.63;;;;;;;-145.69;100.00;73496.28;5055404;28;20655;-76
2022/01/07 06:12:47;;;;;;;20.33;8.40;;;;;;;-145.69;100.00;73486.31;5055525;28;20226;-76
2022/01/07 06:15:13;;;;;;;18.67;8.37;;;;;;;-145.69;100.00;73492.28;5055462;28;20199;-77
2022/01/07 06:17:40;;;;;;;21.87;8.57;;;;;;;-145.69;100.00;73484.34;5055430;28;20199;-76
2022/01/07 06:20:09;;;;;;;19.53;7.03;;;;;;;-145.69;100.00;73492.28;5055178;28;20701;-77
2022/01/07 06:22:35;;;;;;;18.47;7.53;;;;;;;-145.69;100.00;73488.31;5055286;28;20206;-76
2022/01/07 06:25:02;;;;;;;20.13;8.23;;;;;;;-145.69;100.00;73484.34;5055084;28;20207;-76
2022/01/07 06:27:29;;;;;;;21.13;8.17;;;;;;;-145.69;100.00;73462.44;5037825;28;20204;-76
2022/01/07 06:29:57;;;;;;;17.70;7.07;;;;;;;-145.69;100.00;73476.38;5035171;28;20610;-76
2022/01/07 06:32:23;;;;;;;19.50;8.30;;;;;;;-145.69;100.00;73464.44;5035138;28;20205;-75
2022/01/07 06:34:50;;;;;;;25.23;8.10;;;;;;;-145.69;100.00;73460.44;5040147;28;20191;-76
2022/01/07 06:37:18;;;;;;;18.57;8.00;;;;;;;-145.69;100.00;73472.38;5054902;28;20204;-75
2022/01/07 06:39:45;;;;;;;16.93;7.77;;;;;;;-145.69;100.00;73480.34;5054805;28;20195;-75
2022/01/07 06:42:11;;;;;;;19.43;8.30;;;;;;;-145.69;100.00;73464.44;5055080;28;20274;-75
2022/01/07 06:44:38;;;;;;;18.37;7.43;;;;;;;-145.69;100.00;73460.44;5054851;28;20203;-76
2022/01/07 06:47:05;;;;;;;20.87;8.33;;;;;;;-145.69;100.00;73456.47;5054940;28;20206;-75
2022/01/07 06:49:31;;;;;;;17.70;7.50;;;;;;;-145.69;100.00;73458.44;5054886;28;20202;-76
2022/01/07 06:51:58;;;;;;;22.17;6.83;;;;;;;-145.69;100.00;73440.53;5054470;28;20243;-75
2022/01/07 06:54:27;;;;;;;17.20;6.43;;;;;;;-145.69;100.00;73430.56;5054538;28;20277;-76
2022/01/07 06:56:54;;;;;;;14.73;6.50;;;;;;;-145.69;100.00;73420.63;5053487;28;20199;-75
2022/01/07 06:59:20;;;;;;;14.87;6.20;;;;;;;-145.69;100.00;73412.66;5054866;28;20556;-76
2022/01/07 07:01:48;;;;;;;14.10;6.23;;;;;;;-145.69;100.00;73394.75;5054590;28;20196;-76
2022/01/07 07:04:15;;;;;;;13.67;5.53;;;;;;;-145.69;100.00;73376.81;5054260;28;20203;-75
2022/01/07 07:06:41;;;;;;;14.23;6.50;;;;;;;-145.69;100.00;73390.75;5038677;28;20191;-76
2022/01/07 07:09:08;;;;;;;14.23;5.77;;;;;;;-145.69;100.00;73392.75;5054560;28;20257;-76
2022/01/07 07:11:36;;;;;;;14.37;6.43;;;;;;;-145.69;100.00;73384.78;5054451;28;20723;-76
2022/01/07 07:14:03;;;;;;;16.17;6.17;;;;;;;-145.69;100.00;73380.81;5054404;28;20227;-76
2022/01/07 07:16:30;;;;;;;12.07;5.57;;;;;;;-145.69;100.00;73384.78;5054157;28;20207;-76
2022/01/07 07:18:56;;;;;;;12.57;5.90;;;;;;;-145.69;100.00;73400.72;5054141;28;20206;-76
2022/01/07 07:21:23;;;;;;;15.50;5.97;;;;;;;-145.69;100.00;73394.75;5054018;28;20202;-76
2022/01/07 07:23:49;;;;;;;14.97;6.47;;;;;;;-145.69;100.00;73384.78;5054206;28;20204;-76
2022/01/07 07:26:15;;;;;;;14.17;6.17;;;;;;;-145.69;100.00;73364.88;5053948;28;20658;-76
2022/01/07 07:28:43;;;;;;;95.40;26.17;;;;;;;-145.69;100.00;73368.88;5054018;28;20222;-75
2022/01/07 07:31:13;;;;;;;58.37;19.27;;;;;;;-145.69;100.00;73376.81;5053899;28;20207;-75
2022/01/07 07:34:08;;;;;;;36.67;13.57;;;;;;;-145.69;100.00;73372.84;5053759;28;20230;-76
2022/01/07 07:36:35;;;;;;;19.23;5.57;;;;;;;-145.69;100.00;73350.94;5034081;28;20192;-76
2022/01/07 07:39:05;;;;;;;12.43;5.87;;;;;;;-145.69;100.00;73342.97;5033809;28;20655;-75
2022/01/07 07:41:33;;;;;;;12.97;5.57;;;;;;;-145.69;100.00;73333.03;5033754;28;20570;-76
2022/01/07 07:44:01;;;;;;;13.90;6.57;;;;;;;-145.69;100.00;73317.09;5033879;28;20270;-76
2022/01/07 07:46:30;;;;;;;18.27;6.47;;;;;;;-145.69;100.00;73315.13;5033905;28;20196;-76
2022/01/07 07:48:56;;;;;;;13.07;5.93;;;;;;;-145.69;100.00;73309.13;5033961;28;20218;-76
2022/01/07 07:51:23;;;;;;;14.37;5.87;;;;;;;-145.69;100.00;73309.13;5033653;28;20258;-75
2022/01/07 07:53:50;;;;;;;12.60;5.63;;;;;;;-145.69;100.00;73309.13;5033683;28;20251;-75
2022/01/07 07:56:18;;;;;;;13.50;4.90;;;;;;;-145.69;100.00;73269.31;5033646;28;20204;-75
2022/01/07 07:58:44;;;;;;;13.00;5.40;;;;;;;-145.69;100.00;73261.34;5033489;28;20207;-75
2022/01/07 08:01:13;;;;;;;13.23;4.93;;;;;;;-145.69;100.00;73233.50;5033416;28;20678;-76
2022/01/07 08:03:40;;;;;;;11.70;5.37;;;;;;;-145.69;100.00;73229.50;5033638;28;20211;-75
2022/01/07 08:06:07;;;;;;;12.67;5.13;;;;;;;-145.69;100.00;73229.50;5050140;28;20658;-75
2022/01/07 08:08:34;;;;;;;11.97;4.40;;;;;;;-145.69;100.00;73225.53;5052823;28;20202;-75
2022/01/07 08:11:04;;;;;;;11.70;5.00;;;;;;;-145.69;100.00;73229.50;5053133;28;20203;-75
2022/01/07 08:13:31;;;;;;;13.77;4.77;;;;;;;-145.69;100.00;73225.53;5053336;28;20275;-75
2022/01/07 08:15:58;;;;;;;12.60;5.23;;;;;;;-145.69;100.00;73213.56;5053387;28;20234;-75
2022/01/07 08:18:26;;;;;;;13.83;5.33;;;;;;;-145.69;100.00;73193.66;5053318;28;20203;-75
2022/01/07 08:20:53;;;;;;;10.97;5.00;;;;;;;-145.69;100.00;73199.66;5052768;28;20658;-75
2022/01/07 08:23:19;;;;;;;9.93;5.23;;;;;;;-145.69;100.00;73189.69;5050430;28;20214;-75
2022/01/07 08:25:46;;;;;;;14.77;5.40;;;;;;;-145.69;100.00;73173.75;5053028;28;20202;-75
2022/01/07 08:28:14;;;;;;;10.97;4.53;;;;;;;-145.69;100.00;73171.78;5053251;28;20199;-77
2022/01/07 08:31:00;;;;;;;10.73;4.37;;;;;;;-145.69;100.00;73151.88;5053036;28;20290;-76
2022/01/07 08:36:13;;;;;;;17.00;5.40;;;;;;;-145.69;100.00;73131.97;5052732;28;20206;-76
2022/01/07 08:38:39;;;;;;;12.57;5.43;;;;;;;-145.69;100.00;73114.03;5052823;28;20199;-76
2022/01/07 08:41:06;;;;;;;11.90;5.50;;;;;;;-145.69;100.00;73102.09;5052971;28;20229;-76
2022/01/07 08:43:33;;;;;;;9.90;5.00;;;;;;;-145.69;100.00;73092.16;5052731;28;20207;-75
2022/01/07 08:46:00;;;;;;;14.83;5.00;;;;;;;-145.69;100.00;73086.19;5052864;28;20286;-75
2022/01/07 08:48:29;;;;;;;17.67;5.20;;;;;;;-145.69;100.00;73082.19;5052655;28;20196;-75
2022/01/07 08:50:56;;;;;;;9.53;4.63;;;;;;;-145.69;100.00;73078.22;5052643;28;20215;-75
2022/01/07 08:53:22;;;;;;;12.83;5.20;;;;;;;-145.69;100.00;73074.22;5052411;28;20266;-75
2022/01/07 08:55:49;;;;;;;16.70;5.57;;;;;;;-145.69;100.00;73064.28;5052844;28;20203;-75
2022/01/07 08:58:18;;;;;;;10.00;4.80;;;;;;;-145.69;100.00;73062.28;5052627;28;20671;-75
2022/01/07 09:00:45;;;;;;;11.83;4.90;;;;;;;-145.69;100.00;73066.25;5052299;28;20187;-75
2022/01/07 09:03:14;;;;;;;7.83;3.77;;;;;;;-145.69;100.00;73070.25;5052616;28;20294;-75
2022/01/07 09:05:42;;;;;;;8.77;4.13;;;;;;;-145.69;100.00;73068.25;5052472;28;20677;-75
2022/01/07 09:08:10;;;;;;;11.50;4.63;;;;;;;-145.69;100.00;73054.31;5052751;28;20203;-75
2022/01/07 09:10:39;;;;;;;9.47;4.77;;;;;;;-145.69;100.00;73046.34;5052329;28;20199;-75
2022/01/07 09:13:08;;;;;;;12.13;5.03;;;;;;;-145.69;100.00;73046.34;5052645;28;20199;-75
2022/01/07 09:15:35;;;;;;;10.10;4.87;;;;;;;-145.69;100.00;73044.38;5052335;28;20860;-75
2022/01/07 09:18:09;;;;;;;10.53;4.77;;;;;;;-145.69;100.00;73050.34;5052393;28;20208;-75
2022/01/07 09:20:36;;;;;;;12.13;4.60;;;;;;;-145.69;100.00;73020.47;5055482;28;20206;-75
2022/01/07 09:23:05;;;;;;;8.17;5.03;;;;;;;-145.69;100.00;73028.44;5056297;28;20555;-75
2022/01/07 09:25:34;;;;;;;7.93;4.00;;;;;;;-145.69;100.00;72998.59;5056366;28;20212;-75
2022/01/07 09:28:00;;;;;;;82.93;30.00;;;;;;;-145.69;100.00;72992.59;5056165;28;20199;-75
2022/01/07 09:30:27;;;;;;;13.77;7.37;;;;;;;-145.69;100.00;72994.59;5055904;28;20198;-76
2022/01/07 09:32:58;;;;;;;13.20;5.27;;;;;;;-145.69;100.00;72982.66;5056165;28;20191;-75
2022/01/07 09:35:25;;;;;;;12.87;5.77;;;;;;;-145.69;100.00;72988.63;5056177;28;20223;-74
2022/01/07 09:37:52;;;;;;;12.40;5.97;;;;;;;-145.69;100.00;72980.66;5056243;28;20206;-75
2022/01/07 09:40:20;;;;;;;12.27;6.00;;;;;;;-145.69;100.00;72984.66;5056045;28;20200;-76
2022/01/07 09:43:05;;;;;;;10.60;5.53;;;;;;;-145.69;100.00;72966.72;5055940;28;20204;-76
2022/01/07 09:45:34;;;;;;;14.27;5.10;;;;;;;-145.69;100.00;72964.75;5055844;28;20677;-75
2022/01/07 09:48:02;;;;;;;9.70;5.23;;;;;;;-145.69;100.00;72972.72;5055807;28;20199;-74
2022/01/07 09:50:30;;;;;;;10.43;4.87;;;;;;;-145.69;100.00;72950.81;5055984;28;20207;-75
2022/01/07 09:52:56;;;;;;;14.47;6.77;;;;;;;-145.69;100.00;72978.69;5055659;28;20713;-75
2022/01/07 09:55:25;;;;;;;15.27;6.47;;;;;;;-145.69;100.00;72974.69;5055691;28;20230;-75
2022/01/07 09:57:52;;;;;;;13.67;6.47;;;;;;;-145.69;100.00;72960.75;5055853;28;20207;-75
2022/01/07 10:00:18;;;;;;;23.60;8.03;;;;;;;-145.69;100.00;72938.88;5055327;28;20670;-75
2022/01/07 10:02:59;;;;;;;13.57;6.37;;;;;;;-145.69;100.00;72932.91;5055855;28;20208;-75
2022/01/07 10:05:27;;;;;;;13.73;6.00;;;;;;;-145.69;100.00;72928.91;5055579;28;20199;-75
2022/01/07 10:07:53;;;;;;;14.97;6.27;;;;;;;-145.69;100.00;72922.94;5055477;28;20214;-75
2022/01/07 10:10:20;;;;;;;29.50;11.40;;;;;;;-145.69;100.00;72920.94;5055602;28;20199;-75
2022/01/07 10:12:53;;;;;;;10.00;4.93;;;;;;;-145.69;100.00;72926.91;5055623;28;20203;-75
2022/01/07 10:15:22;;;;;;;9.00;4.83;;;;;;;-145.69;100.00;72930.91;5055266;28;20277;-74
2022/01/07 10:17:57;;;;;;;10.17;4.70;;;;;;;-145.69;100.00;72911.00;5055326;28;20203;-75
2022/01/07 10:20:28;;;;;;;10.67;5.03;;;;;;;-145.69;100.00;72911.00;5055301;28;20195;-75
2022/01/07 10:22:57;;;;;;;8.43;4.50;;;;;;;-145.69;100.00;72893.09;5045624;28;20196;-75
2022/01/07 10:25:26;;;;;;;6.57;4.23;;;;;;;-145.69;100.00;72907.00;5035443;28;20223;-75
2022/01/07 10:28:03;;;;;;;12.32;6.30;;;;;;;-145.69;100.00;72907.00;5034497;28;20932;-75
2022/01/07 10:30:35;;;;;;;8.87;4.97;;;;;;;-145.69;100.00;72891.09;5042547;28;20207;-75
2022/01/07 10:33:14;;;;;;;11.53;5.07;;;;;;;-145.69;100.00;72895.06;5054820;28;20261;-75
2022/01/07 10:35:41;;;;;;;8.63;4.20;;;;;;;-145.69;99.44;72879.16;5055119;28;20281;-75
2022/01/07 10:38:07;;;;;;;8.93;4.63;;;;;;;-145.69;100.00;72885.13;5055256;28;20598;-75
2022/01/07 10:40:36;;;;;;;8.40;3.90;;;;;;;-145.69;99.93;72871.19;5054867;28;20207;-76
2022/01/07 10:43:12;;;;;;;10.40;3.97;;;;;;;-145.69;100.00;72877.16;5054730;28;20199;-75
2022/01/07 10:45:41;;;;;;;9.23;4.50;;;;;;;-145.69;100.00;72875.16;5054815;28;20650;-75
2022/01/07 10:48:08;;;;;;;9.63;3.13;;;;;;;-145.69;97.94;72863.22;5055066;28;20257;-75
2022/01/07 10:50:38;;;;;;;8.13;4.33;;;;;;;-145.69;100.00;72865.22;5054810;28;20655;-75
2022/01/07 10:53:16;;;;;;;7.03;3.33;;;;;;;-145.69;98.55;72871.19;5054682;28;20318;-75
2022/01/07 10:55:58;;;;;;;8.73;3.90;;;;;;;-145.69;99.29;72863.22;5054632;28;20253;-75
2022/01/07 10:58:27;;;;;;;6.33;3.30;;;;;;;-145.69;100.00;72845.31;5055338;28;20200;-74
2022/01/07 11:00:54;;;;;;;6.60;3.70;;;;;;;-145.69;100.00;72839.34;5054245;28;20567;-74
2022/01/07 11:03:20;;;;;;;8.20;3.33;;;;;;;-145.69;100.00;72839.34;5054459;28;20229;-74
2022/01/07 11:05:47;;;;;;;6.63;3.37;;;;;;;-145.69;95.16;72825.41;5054545;28;20207;-74
2022/01/07 11:08:15;;;;;;;7.53;3.07;;;;;;;-145.69;92.37;72823.41;5054415;28;20257;-74
2022/01/07 11:10:42;;;;;;;6.97;3.60;;;;;;;-145.69;95.03;72823.41;5054630;28;20207;-74